createdAt,value
2022-10-30T22:17:08.788Z,5.57
2022-10-30T22:20:38.693Z,7.15
2022-10-30T22:24:19.743Z,5.93
2022-10-30T22:26:27.997Z,6.97
2022-10-30T22:28:35.704Z,7.03
2022-10-30T22:30:41.013Z,6.97
2022-10-30T22:32:46.346Z,7.13
2022-10-30T22:34:52.234Z,6.57
2022-10-30T22:36:57.521Z,6.88
2022-10-30T22:39:07.551Z,7.13
2022-10-30T22:41:18.756Z,6.22
2022-10-30T22:43:24.094Z,6.45
2022-10-30T22:45:29.199Z,6.95
2022-10-30T22:47:34.134Z,7.63
2022-10-30T22:49:39.107Z,7.18
2022-10-30T22:51:49.154Z,6.97
2022-10-30T22:53:59.982Z,7.50
2022-10-30T22:56:19.740Z,7.18
2022-10-30T22:58:29.632Z,6.20
2022-10-30T23:00:34.670Z,6.13
2022-10-30T23:02:40.253Z,6.03
2022-10-30T23:04:45.980Z,5.22
2022-10-30T23:06:51.113Z,5.88
2022-10-30T23:08:58.993Z,5.68
2022-10-30T23:11:06.052Z,6.53
2022-10-30T23:13:14.538Z,5.70
2022-10-30T23:15:20.922Z,5.70
2022-10-30T23:17:26.775Z,4.93
2022-10-30T23:19:33.167Z,5.50
2022-10-30T23:21:39.392Z,5.75
2022-10-30T23:23:46.808Z,4.15
2022-10-30T23:25:52.287Z,4.75
2022-10-30T23:27:57.816Z,5.00
2022-10-30T23:30:07.303Z,4.25
2022-10-30T23:32:12.324Z,4.65
2022-10-30T23:34:19.975Z,4.15
2022-10-30T23:36:26.004Z,4.00
2022-10-30T23:38:31.645Z,4.82
2022-10-30T23:40:36.607Z,4.57
2022-10-30T23:42:42.341Z,4.18
2022-10-30T23:44:51.442Z,4.97
2022-10-30T23:46:59.012Z,3.85
2022-10-30T23:49:05.294Z,5.00
2022-10-30T23:51:11.238Z,5.10
2022-10-30T23:53:16.617Z,5.00
2022-10-30T23:55:22.250Z,5.32
2022-10-30T23:57:28.814Z,4.50
2022-10-30T23:59:37.259Z,4.53
